sensor_id;sensor_type;location;lat;lon;timestamp;temperature;humidity
8872;DHT22;4472;52.092;9.820;2023-05-07T00:00:58;11.70;99.90
8872;DHT22;4472;52.092;9.820;2023-05-07T00:03:49;11.80;99.90
8872;DHT22;4472;52.092;9.820;2023-05-07T00:06:37;11.50;99.90
8872;DHT22;4472;52.092;9.820;2023-05-07T00:09:24;11.50;99.90
8872;DHT22;4472;52.092;9.820;2023-05-07T00:12:11;11.50;99.90
8872;DHT22;4472;52.092;9.820;2023-05-07T00:14:59;11.40;99.90
8872;DHT22;4472;52.092;9.820;2023-05-07T00:17:46;11.40;99.90
8872;DHT22;4472;52.092;9.820;2023-05-07T00:20:33;11.40;99.90
8872;DHT22;4472;52.092;9.820;2023-05-07T00:23:22;11.40;99.90
8872;DHT22;4472;52.092;9.820;2023-05-07T00:26:09;11.30;99.90
8872;DHT22;4472;52.092;9.820;2023-05-07T00:28:56;11.30;99.90
8872;DHT22;4472;52.092;9.820;2023-05-07T00:31:43;11.30;99.90
8872;DHT22;4472;52.092;9.820;2023-05-07T00:34:31;11.30;99.90
8872;DHT22;4472;52.092;9.820;2023-05-07T00:37:18;11.30;99.90
8872;DHT22;4472;52.092;9.820;2023-05-07T00:40:08;11.30;99.90
8872;DHT22;4472;52.092;9.820;2023-05-07T00:42:55;11.30;99.90
8872;DHT22;4472;52.092;9.820;2023-05-07T00:45:43;11.30;99.90
8872;DHT22;4472;52.092;9.820;2023-05-07T00:48:31;11.30;99.90
8872;DHT22;4472;52.092;9.820;2023-05-07T00:51:19;11.30;99.90
8872;DHT22;4472;52.092;9.820;2023-05-07T00:54:06;11.20;99.90
8872;DHT22;4472;52.092;9.820;2023-05-07T00:56:56;11.40;99.90
8872;DHT22;4472;52.092;9.820;2023-05-07T00:59:43;11.30;99.90
8872;DHT22;4472;52.092;9.820;2023-05-07T01:02:30;11.30;99.90
8872;DHT22;4472;52.092;9.820;2023-05-07T01:05:18;11.20;99.90
8872;DHT22;4472;52.092;9.820;2023-05-07T01:10:54;11.20;99.90
8872;DHT22;4472;52.092;9.820;2023-05-07T01:13:43;11.30;99.90
8872;DHT22;4472;52.092;9.820;2023-05-07T01:22:09;11.20;99.90
8872;DHT22;4472;52.092;9.820;2023-05-07T01:24:58;11.20;99.90
8872;DHT22;4472;52.092;9.820;2023-05-07T01:27:47;11.10;99.90
8872;DHT22;4472;52.092;9.820;2023-05-07T01:30:34;11.20;99.90
8872;DHT22;4472;52.092;9.820;2023-05-07T01:33:23;11.20;99.90
8872;DHT22;4472;52.092;9.820;2023-05-07T01:36:12;11.20;99.90
8872;DHT22;4472;52.092;9.820;2023-05-07T01:39:00;11.20;99.90
8872;DHT22;4472;52.092;9.820;2023-05-07T01:41:49;11.30;99.90
8872;DHT22;4472;52.092;9.820;2023-05-07T01:44:37;11.40;99.90
8872;DHT22;4472;52.092;9.820;2023-05-07T01:50:12;11.30;99.90
8872;DHT22;4472;52.092;9.820;2023-05-07T01:53:01;11.30;99.90
8872;DHT22;4472;52.092;9.820;2023-05-07T01:55:48;11.40;99.90
8872;DHT22;4472;52.092;9.820;2023-05-07T02:01:24;11.30;99.90
8872;DHT22;4472;52.092;9.820;2023-05-07T02:04:11;11.30;99.90
8872;DHT22;4472;52.092;9.820;2023-05-07T02:06:58;11.40;99.90
8872;DHT22;4472;52.092;9.820;2023-05-07T02:09:45;11.30;99.90
8872;DHT22;4472;52.092;9.820;2023-05-07T02:12:32;11.30;99.90
8872;DHT22;4472;52.092;9.820;2023-05-07T02:15:21;11.30;99.90
8872;DHT22;4472;52.092;9.820;2023-05-07T02:18:08;11.30;99.90
8872;DHT22;4472;52.092;9.820;2023-05-07T02:20:55;11.40;99.90
8872;DHT22;4472;52.092;9.820;2023-05-07T02:23:43;11.30;99.90
8872;DHT22;4472;52.092;9.820;2023-05-07T02:26:30;11.20;99.90
8872;DHT22;4472;52.092;9.820;2023-05-07T02:29:17;11.30;99.90
8872;DHT22;4472;52.092;9.820;2023-05-07T02:32:06;11.20;99.90
8872;DHT22;4472;52.092;9.820;2023-05-07T02:34:53;11.30;99.90
8872;DHT22;4472;52.092;9.820;2023-05-07T02:37:40;11.30;99.90
8872;DHT22;4472;52.092;9.820;2023-05-07T02:40:27;11.30;99.90
8872;DHT22;4472;52.092;9.820;2023-05-07T02:43:14;11.40;99.90
8872;DHT22;4472;52.092;9.820;2023-05-07T02:46:02;11.40;99.90
8872;DHT22;4472;52.092;9.820;2023-05-07T02:48:51;11.30;99.90
8872;DHT22;4472;52.092;9.820;2023-05-07T02:51:38;11.30;99.90
8872;DHT22;4472;52.092;9.820;2023-05-07T02:54:25;11.10;99.90
8872;DHT22;4472;52.092;9.820;2023-05-07T02:57:12;11.10;99.90
8872;DHT22;4472;52.092;9.820;2023-05-07T02:59:59;11.10;99.90
8872;DHT22;4472;52.092;9.820;2023-05-07T03:02:46;11.00;99.90
8872;DHT22;4472;52.092;9.820;2023-05-07T03:05:35;11.00;99.90
8872;DHT22;4472;52.092;9.820;2023-05-07T03:08:22;11.00;99.90
8872;DHT22;4472;52.092;9.820;2023-05-07T03:11:09;11.00;99.90
8872;DHT22;4472;52.092;9.820;2023-05-07T03:13:56;11.00;99.90
8872;DHT22;4472;52.092;9.820;2023-05-07T03:16:43;11.00;99.90
8872;DHT22;4472;52.092;9.820;2023-05-07T03:19:31;11.00;99.90
8872;DHT22;4472;52.092;9.820;2023-05-07T03:22:19;11.00;99.90
8872;DHT22;4472;52.092;9.820;2023-05-07T03:25:08;11.00;99.90
8872;DHT22;4472;52.092;9.820;2023-05-07T03:27:56;11.00;99.90
8872;DHT22;4472;52.092;9.820;2023-05-07T03:30:43;10.90;99.90
8872;DHT22;4472;52.092;9.820;2023-05-07T03:33:32;10.90;99.90
8872;DHT22;4472;52.092;9.820;2023-05-07T03:36:20;10.90;99.90
8872;DHT22;4472;52.092;9.820;2023-05-07T03:39:08;10.90;99.90
8872;DHT22;4472;52.092;9.820;2023-05-07T03:41:56;10.90;99.90
8872;DHT22;4472;52.092;9.820;2023-05-07T03:44:43;10.90;99.90
8872;DHT22;4472;52.092;9.820;2023-05-07T03:47:30;10.90;99.90
8872;DHT22;4472;52.092;9.820;2023-05-07T03:50:17;10.90;99.90
8872;DHT22;4472;52.092;9.820;2023-05-07T03:53:04;10.90;99.90
8872;DHT22;4472;52.092;9.820;2023-05-07T03:55:53;11.00;99.90
8872;DHT22;4472;52.092;9.820;2023-05-07T03:58:40;11.10;99.90
8872;DHT22;4472;52.092;9.820;2023-05-07T04:01:27;11.20;99.90
8872;DHT22;4472;52.092;9.820;2023-05-07T04:04:15;11.00;99.90
8872;DHT22;4472;52.092;9.820;2023-05-07T04:07:02;11.00;99.90
8872;DHT22;4472;52.092;9.820;2023-05-07T04:09:50;11.00;99.90
8872;DHT22;4472;52.092;9.820;2023-05-07T04:12:38;10.90;99.90
8872;DHT22;4472;52.092;9.820;2023-05-07T04:15:25;11.10;99.90
8872;DHT22;4472;52.092;9.820;2023-05-07T04:18:13;11.20;99.90
8872;DHT22;4472;52.092;9.820;2023-05-07T04:21:00;11.10;99.90
8872;DHT22;4472;52.092;9.820;2023-05-07T04:23:47;11.20;99.90
8872;DHT22;4472;52.092;9.820;2023-05-07T04:26:34;11.20;99.90
8872;DHT22;4472;52.092;9.820;2023-05-07T04:29:23;11.10;99.90
8872;DHT22;4472;52.092;9.820;2023-05-07T04:32:10;11.10;99.90
8872;DHT22;4472;52.092;9.820;2023-05-07T04:34:58;11.20;99.90
8872;DHT22;4472;52.092;9.820;2023-05-07T04:37:45;11.10;99.90
8872;DHT22;4472;52.092;9.820;2023-05-07T04:40:32;11.20;99.90
8872;DHT22;4472;52.092;9.820;2023-05-07T04:43:19;11.10;99.90
8872;DHT22;4472;52.092;9.820;2023-05-07T04:46:08;11.10;99.90
8872;DHT22;4472;52.092;9.820;2023-05-07T04:48:55;11.30;99.90
8872;DHT22;4472;52.092;9.820;2023-05-07T04:51:43;11.00;99.90
8872;DHT22;4472;52.092;9.820;2023-05-07T04:54:30;11.90;99.90
8872;DHT22;4472;52.092;9.820;2023-05-07T04:57:17;11.20;99.90
8872;DHT22;4472;52.092;9.820;2023-05-07T05:00:05;11.30;99.90
8872;DHT22;4472;52.092;9.820;2023-05-07T05:02:55;11.30;99.90
8872;DHT22;4472;52.092;9.820;2023-05-07T05:05:43;11.30;99.90
8872;DHT22;4472;52.092;9.820;2023-05-07T05:11:17;11.30;99.90
8872;DHT22;4472;52.092;9.820;2023-05-07T05:14:04;11.30;99.90
8872;DHT22;4472;52.092;9.820;2023-05-07T05:16:52;11.30;99.90
8872;DHT22;4472;52.092;9.820;2023-05-07T05:19:40;12.00;99.90
8872;DHT22;4472;52.092;9.820;2023-05-07T05:22:27;11.30;99.90
8872;DHT22;4472;52.092;9.820;2023-05-07T05:25:17;11.40;99.90
8872;DHT22;4472;52.092;9.820;2023-05-07T05:28:04;11.30;99.90
8872;DHT22;4472;52.092;9.820;2023-05-07T05:30:51;11.40;99.90
8872;DHT22;4472;52.092;9.820;2023-05-07T05:33:38;11.40;99.90
8872;DHT22;4472;52.092;9.820;2023-05-07T05:36:27;11.40;99.90
8872;DHT22;4472;52.092;9.820;2023-05-07T05:39:14;11.40;99.90
8872;DHT22;4472;52.092;9.820;2023-05-07T05:42:01;11.40;99.90
8872;DHT22;4472;52.092;9.820;2023-05-07T05:44:48;11.40;99.90
8872;DHT22;4472;52.092;9.820;2023-05-07T05:47:35;11.50;99.90
8872;DHT22;4472;52.092;9.820;2023-05-07T05:50:23;11.50;99.90
8872;DHT22;4472;52.092;9.820;2023-05-07T05:53:12;11.40;99.90
8872;DHT22;4472;52.092;9.820;2023-05-07T05:55:59;11.50;99.90
8872;DHT22;4472;52.092;9.820;2023-05-07T05:58:46;11.60;99.90
8872;DHT22;4472;52.092;9.820;2023-05-07T06:01:34;11.60;99.90
8872;DHT22;4472;52.092;9.820;2023-05-07T06:04:21;11.70;99.90
8872;DHT22;4472;52.092;9.820;2023-05-07T06:07:08;11.80;99.90
8872;DHT22;4472;52.092;9.820;2023-05-07T06:09:56;12.30;99.90
8872;DHT22;4472;52.092;9.820;2023-05-07T06:12:45;11.90;99.90
8872;DHT22;4472;52.092;9.820;2023-05-07T06:15:32;12.10;99.90
8872;DHT22;4472;52.092;9.820;2023-05-07T06:18:19;12.00;99.90
8872;DHT22;4472;52.092;9.820;2023-05-07T06:21:06;12.20;99.90
8872;DHT22;4472;52.092;9.820;2023-05-07T06:23:53;12.10;99.90
8872;DHT22;4472;52.092;9.820;2023-05-07T06:26:42;12.10;99.90
8872;DHT22;4472;52.092;9.820;2023-05-07T06:29:29;12.20;99.90
8872;DHT22;4472;52.092;9.820;2023-05-07T06:32:18;12.20;99.90
8872;DHT22;4472;52.092;9.820;2023-05-07T06:35:06;12.40;99.90
8872;DHT22;4472;52.092;9.820;2023-05-07T06:37:53;12.40;99.90
8872;DHT22;4472;52.092;9.820;2023-05-07T06:40:40;12.50;99.90
8872;DHT22;4472;52.092;9.820;2023-05-07T06:43:28;12.40;99.90
8872;DHT22;4472;52.092;9.820;2023-05-07T06:46:16;12.40;99.90
8872;DHT22;4472;52.092;9.820;2023-05-07T06:51:50;12.50;99.90
8872;DHT22;4472;52.092;9.820;2023-05-07T06:54:38;12.50;99.90
8872;DHT22;4472;52.092;9.820;2023-05-07T06:57:25;12.50;99.90
8872;DHT22;4472;52.092;9.820;2023-05-07T07:00:14;12.70;99.90
8872;DHT22;4472;52.092;9.820;2023-05-07T07:03:02;12.60;99.90
8872;DHT22;4472;52.092;9.820;2023-05-07T07:05:51;12.50;99.90
8872;DHT22;4472;52.092;9.820;2023-05-07T07:08:38;12.60;99.90
8872;DHT22;4472;52.092;9.820;2023-05-07T07:11:26;12.50;99.90
8872;DHT22;4472;52.092;9.820;2023-05-07T07:14:13;12.50;99.90
8872;DHT22;4472;52.092;9.820;2023-05-07T07:17:01;12.40;99.90
8872;DHT22;4472;52.092;9.820;2023-05-07T07:19:48;12.40;99.90
8872;DHT22;4472;52.092;9.820;2023-05-07T07:22:35;12.30;99.90
8872;DHT22;4472;52.092;9.820;2023-05-07T07:25:23;12.30;99.90
8872;DHT22;4472;52.092;9.820;2023-05-07T07:33:50;12.30;99.90
8872;DHT22;4472;52.092;9.820;2023-05-07T07:36:37;12.40;99.90
8872;DHT22;4472;52.092;9.820;2023-05-07T07:39:25;12.40;99.90
8872;DHT22;4472;52.092;9.820;2023-05-07T07:42:12;12.40;99.90
8872;DHT22;4472;52.092;9.820;2023-05-07T07:44:59;12.60;99.90
8872;DHT22;4472;52.092;9.820;2023-05-07T07:47:46;12.60;99.90
8872;DHT22;4472;52.092;9.820;2023-05-07T07:50:34;12.60;99.90
8872;DHT22;4472;52.092;9.820;2023-05-07T07:53:21;12.60;99.90
8872;DHT22;4472;52.092;9.820;2023-05-07T07:56:09;12.60;99.90
8872;DHT22;4472;52.092;9.820;2023-05-07T07:58:56;12.60;99.90
8872;DHT22;4472;52.092;9.820;2023-05-07T08:01:43;12.60;99.90
8872;DHT22;4472;52.092;9.820;2023-05-07T08:04:30;12.70;99.90
8872;DHT22;4472;52.092;9.820;2023-05-07T08:07:20;12.70;99.90
8872;DHT22;4472;52.092;9.820;2023-05-07T08:10:09;12.70;99.90
8872;DHT22;4472;52.092;9.820;2023-05-07T08:12:56;12.80;99.90
8872;DHT22;4472;52.092;9.820;2023-05-07T08:15:43;12.80;99.90
8872;DHT22;4472;52.092;9.820;2023-05-07T08:18:30;12.70;99.90
8872;DHT22;4472;52.092;9.820;2023-05-07T08:21:17;12.80;99.90
8872;DHT22;4472;52.092;9.820;2023-05-07T08:24:06;12.90;99.90
8872;DHT22;4472;52.092;9.820;2023-05-07T08:26:53;13.00;99.90
8872;DHT22;4472;52.092;9.820;2023-05-07T08:29:40;13.20;99.90
8872;DHT22;4472;52.092;9.820;2023-05-07T08:32:28;13.20;99.90
8872;DHT22;4472;52.092;9.820;2023-05-07T08:35:15;13.30;99.90
8872;DHT22;4472;52.092;9.820;2023-05-07T08:38:02;13.30;99.90
8872;DHT22;4472;52.092;9.820;2023-05-07T08:40:50;13.40;99.90
8872;DHT22;4472;52.092;9.820;2023-05-07T08:43:38;13.40;99.90
8872;DHT22;4472;52.092;9.820;2023-05-07T08:46:30;13.40;99.90
8872;DHT22;4472;52.092;9.820;2023-05-07T08:49:18;13.40;99.90
8872;DHT22;4472;52.092;9.820;2023-05-07T08:52:05;13.40;99.90
8872;DHT22;4472;52.092;9.820;2023-05-07T08:54:52;13.50;99.90
8872;DHT22;4472;52.092;9.820;2023-05-07T08:57:41;13.30;99.90
8872;DHT22;4472;52.092;9.820;2023-05-07T09:00:28;13.40;99.90
8872;DHT22;4472;52.092;9.820;2023-05-07T09:03:15;13.40;99.90
8872;DHT22;4472;52.092;9.820;2023-05-07T09:06:03;13.40;99.90
8872;DHT22;4472;52.092;9.820;2023-05-07T09:08:51;13.40;99.90
8872;DHT22;4472;52.092;9.820;2023-05-07T09:11:38;13.40;99.90
8872;DHT22;4472;52.092;9.820;2023-05-07T09:14:27;13.40;99.90
8872;DHT22;4472;52.092;9.820;2023-05-07T09:17:15;13.40;99.90
8872;DHT22;4472;52.092;9.820;2023-05-07T09:20:03;13.50;99.90
8872;DHT22;4472;52.092;9.820;2023-05-07T09:22:50;13.40;99.90
8872;DHT22;4472;52.092;9.820;2023-05-07T09:25:38;13.50;99.90
8872;DHT22;4472;52.092;9.820;2023-05-07T09:28:25;13.50;99.90
8872;DHT22;4472;52.092;9.820;2023-05-07T09:31:14;13.50;99.90
8872;DHT22;4472;52.092;9.820;2023-05-07T09:34:01;13.70;99.90
8872;DHT22;4472;52.092;9.820;2023-05-07T09:36:48;13.80;99.90
8872;DHT22;4472;52.092;9.820;2023-05-07T09:39:42;13.90;99.90
8872;DHT22;4472;52.092;9.820;2023-05-07T09:42:29;14.10;99.90
8872;DHT22;4472;52.092;9.820;2023-05-07T09:45:21;14.10;99.90
8872;DHT22;4472;52.092;9.820;2023-05-07T09:48:10;14.10;99.90
8872;DHT22;4472;52.092;9.820;2023-05-07T09:51:02;14.10;99.90
8872;DHT22;4472;52.092;9.820;2023-05-07T09:53:50;14.10;99.90
8872;DHT22;4472;52.092;9.820;2023-05-07T09:56:39;14.20;99.90
8872;DHT22;4472;52.092;9.820;2023-05-07T09:59:28;14.30;99.90
8872;DHT22;4472;52.092;9.820;2023-05-07T10:02:18;14.20;99.90
8872;DHT22;4472;52.092;9.820;2023-05-07T10:05:09;14.30;99.90
8872;DHT22;4472;52.092;9.820;2023-05-07T10:07:56;14.40;99.90
8872;DHT22;4472;52.092;9.820;2023-05-07T10:10:44;14.60;99.90
8872;DHT22;4472;52.092;9.820;2023-05-07T10:13:32;14.80;99.90
8872;DHT22;4472;52.092;9.820;2023-05-07T10:16:21;15.10;99.90
8872;DHT22;4472;52.092;9.820;2023-05-07T10:19:09;15.40;99.90
8872;DHT22;4472;52.092;9.820;2023-05-07T10:22:03;15.40;99.90
8872;DHT22;4472;52.092;9.820;2023-05-07T10:24:52;15.40;99.90
8872;DHT22;4472;52.092;9.820;2023-05-07T10:27:42;15.60;99.90
8872;DHT22;4472;52.092;9.820;2023-05-07T10:30:36;15.70;99.90
8872;DHT22;4472;52.092;9.820;2023-05-07T10:33:27;15.70;99.90
8872;DHT22;4472;52.092;9.820;2023-05-07T10:36:16;15.80;99.90
8872;DHT22;4472;52.092;9.820;2023-05-07T10:39:05;16.30;99.90
8872;DHT22;4472;52.092;9.820;2023-05-07T10:44:41;16.20;99.90
8872;DHT22;4472;52.092;9.820;2023-05-07T10:47:29;16.40;99.90
8872;DHT22;4472;52.092;9.820;2023-05-07T10:50:22;16.30;99.90
8872;DHT22;4472;52.092;9.820;2023-05-07T10:53:23;16.40;99.90
8872;DHT22;4472;52.092;9.820;2023-05-07T10:56:26;16.70;99.90
8872;DHT22;4472;52.092;9.820;2023-05-07T10:59:34;16.00;99.90
8872;DHT22;4472;52.092;9.820;2023-05-07T11:48:12;16.30;99.90
8872;DHT22;4472;52.092;9.820;2023-05-07T11:51:01;16.30;99.90
8872;DHT22;4472;52.092;9.820;2023-05-07T11:53:49;15.80;99.90
8872;DHT22;4472;52.092;9.820;2023-05-07T11:56:37;16.30;99.90
8872;DHT22;4472;52.092;9.820;2023-05-07T12:07:56;16.40;99.90
8872;DHT22;4472;52.092;9.820;2023-05-07T12:16:19;16.50;99.90
8872;DHT22;4472;52.092;9.820;2023-05-07T12:27:31;16.90;99.90
8872;DHT22;4472;52.092;9.820;2023-05-07T12:30:19;17.20;99.90
8872;DHT22;4472;52.092;9.820;2023-05-07T12:33:06;16.60;99.90
8872;DHT22;4472;52.092;9.820;2023-05-07T12:35:55;16.70;99.90
8872;DHT22;4472;52.092;9.820;2023-05-07T12:38:43;17.10;99.90
8872;DHT22;4472;52.092;9.820;2023-05-07T12:41:30;16.70;99.90
8872;DHT22;4472;52.092;9.820;2023-05-07T12:44:22;16.90;99.90
8872;DHT22;4472;52.092;9.820;2023-05-07T12:47:10;16.90;99.90
8872;DHT22;4472;52.092;9.820;2023-05-07T12:49:59;16.80;99.90
8872;DHT22;4472;52.092;9.820;2023-05-07T12:52:47;16.80;99.90
8872;DHT22;4472;52.092;9.820;2023-05-07T12:55:42;16.70;99.90
8872;DHT22;4472;52.092;9.820;2023-05-07T12:58:32;16.70;99.90
8872;DHT22;4472;52.092;9.820;2023-05-07T13:01:20;16.60;99.90
8872;DHT22;4472;52.092;9.820;2023-05-07T13:04:08;16.30;99.90
8872;DHT22;4472;52.092;9.820;2023-05-07T13:06:55;16.20;99.90
8872;DHT22;4472;52.092;9.820;2023-05-07T13:09:42;16.20;99.90
8872;DHT22;4472;52.092;9.820;2023-05-07T13:12:31;16.10;99.90
8872;DHT22;4472;52.092;9.820;2023-05-07T13:15:19;16.60;99.90
8872;DHT22;4472;52.092;9.820;2023-05-07T13:18:06;14.90;99.90
8872;DHT22;4472;52.092;9.820;2023-05-07T13:20:53;16.50;99.90
8872;DHT22;4472;52.092;9.820;2023-05-07T13:23:40;16.70;99.90
8872;DHT22;4472;52.092;9.820;2023-05-07T13:26:29;16.90;99.90
8872;DHT22;4472;52.092;9.820;2023-05-07T13:29:18;17.00;99.90
8872;DHT22;4472;52.092;9.820;2023-05-07T13:32:05;16.90;99.90
8872;DHT22;4472;52.092;9.820;2023-05-07T13:34:52;16.90;99.90
8872;DHT22;4472;52.092;9.820;2023-05-07T13:37:39;16.80;99.90
8872;DHT22;4472;52.092;9.820;2023-05-07T13:40:26;16.90;99.90
8872;DHT22;4472;52.092;9.820;2023-05-07T13:43:14;16.70;99.90
8872;DHT22;4472;52.092;9.820;2023-05-07T13:46:04;17.10;99.90
8872;DHT22;4472;52.092;9.820;2023-05-07T13:48:51;16.70;99.90
8872;DHT22;4472;52.092;9.820;2023-05-07T13:51:38;16.80;99.90
8872;DHT22;4472;52.092;9.820;2023-05-07T13:54:26;16.50;99.90
8872;DHT22;4472;52.092;9.820;2023-05-07T13:57:13;16.40;99.90
8872;DHT22;4472;52.092;9.820;2023-05-07T14:00:00;16.30;99.90
8872;DHT22;4472;52.092;9.820;2023-05-07T14:02:48;16.10;99.90
8872;DHT22;4472;52.092;9.820;2023-05-07T14:05:36;16.30;99.90
8872;DHT22;4472;52.092;9.820;2023-05-07T14:08:23;16.20;99.90
8872;DHT22;4472;52.092;9.820;2023-05-07T14:11:11;16.30;99.90
8872;DHT22;4472;52.092;9.820;2023-05-07T14:13:58;16.20;99.90
8872;DHT22;4472;52.092;9.820;2023-05-07T14:16:45;16.50;99.90
8872;DHT22;4472;52.092;9.820;2023-05-07T14:19:34;16.20;99.90
8872;DHT22;4472;52.092;9.820;2023-05-07T14:22:21;16.20;99.90
8872;DHT22;4472;52.092;9.820;2023-05-07T14:25:08;16.30;99.90
8872;DHT22;4472;52.092;9.820;2023-05-07T14:27:56;16.30;99.90
8872;DHT22;4472;52.092;9.820;2023-05-07T14:30:43;16.20;99.70
8872;DHT22;4472;52.092;9.820;2023-05-07T14:33:30;16.30;99.90
8872;DHT22;4472;52.092;9.820;2023-05-07T14:36:19;16.60;99.90
8872;DHT22;4472;52.092;9.820;2023-05-07T14:39:08;16.50;99.90
8872;DHT22;4472;52.092;9.820;2023-05-07T14:41:57;16.40;99.90
8872;DHT22;4472;52.092;9.820;2023-05-07T14:44:44;16.60;99.70
8872;DHT22;4472;52.092;9.820;2023-05-07T14:47:32;16.60;99.90
8872;DHT22;4472;52.092;9.820;2023-05-07T14:50:19;16.50;99.90
8872;DHT22;4472;52.092;9.820;2023-05-07T14:53:08;16.30;99.90
8872;DHT22;4472;52.092;9.820;2023-05-07T14:55:55;16.20;99.90
8872;DHT22;4472;52.092;9.820;2023-05-07T14:58:42;16.30;99.90
8872;DHT22;4472;52.092;9.820;2023-05-07T15:01:29;16.10;99.90
8872;DHT22;4472;52.092;9.820;2023-05-07T15:04:16;16.10;99.90
8872;DHT22;4472;52.092;9.820;2023-05-07T15:07:04;16.10;99.90
8872;DHT22;4472;52.092;9.820;2023-05-07T15:09:52;16.20;99.90
8872;DHT22;4472;52.092;9.820;2023-05-07T15:12:39;16.20;99.90
8872;DHT22;4472;52.092;9.820;2023-05-07T15:15:26;16.10;99.90
8872;DHT22;4472;52.092;9.820;2023-05-07T15:18:14;16.10;99.90
8872;DHT22;4472;52.092;9.820;2023-05-07T15:21:01;16.00;99.90
8872;DHT22;4472;52.092;9.820;2023-05-07T15:23:48;16.00;99.90
8872;DHT22;4472;52.092;9.820;2023-05-07T15:26:37;16.00;99.90
8872;DHT22;4472;52.092;9.820;2023-05-07T15:29:24;15.90;99.90
8872;DHT22;4472;52.092;9.820;2023-05-07T15:32:11;15.80;99.90
8872;DHT22;4472;52.092;9.820;2023-05-07T15:34:59;15.80;99.90
8872;DHT22;4472;52.092;9.820;2023-05-07T15:37:46;15.80;99.90
8872;DHT22;4472;52.092;9.820;2023-05-07T15:40:33;15.90;99.90
8872;DHT22;4472;52.092;9.820;2023-05-07T15:43:22;15.90;99.90
8872;DHT22;4472;52.092;9.820;2023-05-07T15:46:10;15.80;99.90
8872;DHT22;4472;52.092;9.820;2023-05-07T15:48:57;15.70;99.90
8872;DHT22;4472;52.092;9.820;2023-05-07T15:51:48;15.80;99.90
8872;DHT22;4472;52.092;9.820;2023-05-07T15:54:36;15.70;99.90
8872;DHT22;4472;52.092;9.820;2023-05-07T15:57:24;15.60;99.90
8872;DHT22;4472;52.092;9.820;2023-05-07T16:00:13;15.60;99.90
8872;DHT22;4472;52.092;9.820;2023-05-07T16:03:02;15.40;99.90
8872;DHT22;4472;52.092;9.820;2023-05-07T16:05:50;15.40;99.90
8872;DHT22;4472;52.092;9.820;2023-05-07T16:08:37;15.40;99.90
8872;DHT22;4472;52.092;9.820;2023-05-07T16:11:25;15.20;99.90
8872;DHT22;4472;52.092;9.820;2023-05-07T16:14:15;15.00;99.90
8872;DHT22;4472;52.092;9.820;2023-05-07T16:17:03;15.10;99.90
8872;DHT22;4472;52.092;9.820;2023-05-07T16:19:50;15.30;99.90
8872;DHT22;4472;52.092;9.820;2023-05-07T16:22:38;14.90;99.90
8872;DHT22;4472;52.092;9.820;2023-05-07T16:25:25;14.90;99.90
8872;DHT22;4472;52.092;9.820;2023-05-07T16:28:13;14.70;99.90
8872;DHT22;4472;52.092;9.820;2023-05-07T16:31:00;14.90;99.90
8872;DHT22;4472;52.092;9.820;2023-05-07T16:33:49;14.90;99.90
8872;DHT22;4472;52.092;9.820;2023-05-07T16:36:37;15.00;99.90
8872;DHT22;4472;52.092;9.820;2023-05-07T16:39:24;14.80;99.90
8872;DHT22;4472;52.092;9.820;2023-05-07T16:42:11;14.80;99.90
8872;DHT22;4472;52.092;9.820;2023-05-07T16:44:59;14.80;99.90
8872;DHT22;4472;52.092;9.820;2023-05-07T16:47:46;14.90;99.90
8872;DHT22;4472;52.092;9.820;2023-05-07T16:53:22;14.80;99.90
8872;DHT22;4472;52.092;9.820;2023-05-07T16:56:09;14.90;99.90
8872;DHT22;4472;52.092;9.820;2023-05-07T16:58:56;14.90;99.90
8872;DHT22;4472;52.092;9.820;2023-05-07T17:01:43;14.90;99.90
8872;DHT22;4472;52.092;9.820;2023-05-07T17:04:30;14.90;99.90
8872;DHT22;4472;52.092;9.820;2023-05-07T17:07:19;14.90;99.90
8872;DHT22;4472;52.092;9.820;2023-05-07T17:10:07;14.70;99.90
8872;DHT22;4472;52.092;9.820;2023-05-07T17:12:54;14.60;99.90
8872;DHT22;4472;52.092;9.820;2023-05-07T17:15:41;15.20;99.90
8872;DHT22;4472;52.092;9.820;2023-05-07T17:18:31;14.70;99.90
8872;DHT22;4472;52.092;9.820;2023-05-07T17:21:18;14.60;99.90
8872;DHT22;4472;52.092;9.820;2023-05-07T17:24:07;14.50;99.90
8872;DHT22;4472;52.092;9.820;2023-05-07T17:26:54;14.40;99.90
8872;DHT22;4472;52.092;9.820;2023-05-07T17:29:41;14.40;99.90
8872;DHT22;4472;52.092;9.820;2023-05-07T17:32:28;14.30;99.90
8872;DHT22;4472;52.092;9.820;2023-05-07T17:35:17;14.30;99.90
8872;DHT22;4472;52.092;9.820;2023-05-07T17:38:04;14.20;99.90
8872;DHT22;4472;52.092;9.820;2023-05-07T17:40:53;14.20;99.90
8872;DHT22;4472;52.092;9.820;2023-05-07T17:43:40;14.20;99.90
8872;DHT22;4472;52.092;9.820;2023-05-07T17:46:27;14.20;99.90
8872;DHT22;4472;52.092;9.820;2023-05-07T17:49:14;14.10;99.90
8872;DHT22;4472;52.092;9.820;2023-05-07T17:52:02;14.10;99.90
8872;DHT22;4472;52.092;9.820;2023-05-07T17:54:49;14.00;99.90
8872;DHT22;4472;52.092;9.820;2023-05-07T17:57:37;13.90;99.90
8872;DHT22;4472;52.092;9.820;2023-05-07T18:00:24;14.10;99.90
8872;DHT22;4472;52.092;9.820;2023-05-07T18:03:12;13.70;99.90
8872;DHT22;4472;52.092;9.820;2023-05-07T18:05:59;13.80;99.90
8872;DHT22;4472;52.092;9.820;2023-05-07T18:08:46;13.60;99.90
8872;DHT22;4472;52.092;9.820;2023-05-07T18:11:33;13.50;99.90
8872;DHT22;4472;52.092;9.820;2023-05-07T18:14:23;13.60;99.90
8872;DHT22;4472;52.092;9.820;2023-05-07T18:17:10;13.40;99.90
8872;DHT22;4472;52.092;9.820;2023-05-07T18:19:58;13.40;99.90
8872;DHT22;4472;52.092;9.820;2023-05-07T18:22:45;13.30;99.90
8872;DHT22;4472;52.092;9.820;2023-05-07T18:25:36;13.20;99.90
8872;DHT22;4472;52.092;9.820;2023-05-07T18:28:23;13.20;99.90
8872;DHT22;4472;52.092;9.820;2023-05-07T18:31:12;13.00;99.90
8872;DHT22;4472;52.092;9.820;2023-05-07T18:33:59;13.00;99.90
8872;DHT22;4472;52.092;9.820;2023-05-07T18:36:46;12.90;99.90
8872;DHT22;4472;52.092;9.820;2023-05-07T18:39:34;12.80;99.90
8872;DHT22;4472;52.092;9.820;2023-05-07T18:42:21;12.80;99.90
8872;DHT22;4472;52.092;9.820;2023-05-07T18:45:09;12.70;99.90
8872;DHT22;4472;52.092;9.820;2023-05-07T18:47:58;12.60;99.90
8872;DHT22;4472;52.092;9.820;2023-05-07T18:53:32;12.40;99.90
8872;DHT22;4472;52.092;9.820;2023-05-07T18:56:19;12.50;99.90
8872;DHT22;4472;52.092;9.820;2023-05-07T18:59:07;12.40;99.90
8872;DHT22;4472;52.092;9.820;2023-05-07T19:01:54;12.50;99.90
8872;DHT22;4472;52.092;9.820;2023-05-07T19:04:43;12.30;99.90
8872;DHT22;4472;52.092;9.820;2023-05-07T19:07:30;12.10;99.90
8872;DHT22;4472;52.092;9.820;2023-05-07T19:10:17;12.10;99.90
8872;DHT22;4472;52.092;9.820;2023-05-07T19:13:05;12.10;99.90
8872;DHT22;4472;52.092;9.820;2023-05-07T19:15:52;12.00;99.90
8872;DHT22;4472;52.092;9.820;2023-05-07T19:18:39;11.80;99.90
8872;DHT22;4472;52.092;9.820;2023-05-07T19:21:28;11.80;99.90
8872;DHT22;4472;52.092;9.820;2023-05-07T19:24:15;11.90;99.90
8872;DHT22;4472;52.092;9.820;2023-05-07T19:27:02;11.70;99.90
8872;DHT22;4472;52.092;9.820;2023-05-07T19:29:49;11.60;99.90
8872;DHT22;4472;52.092;9.820;2023-05-07T19:32:37;11.70;99.90
8872;DHT22;4472;52.092;9.820;2023-05-07T19:35:24;11.60;99.90
8872;DHT22;4472;52.092;9.820;2023-05-07T19:38:12;11.50;99.90
8872;DHT22;4472;52.092;9.820;2023-05-07T19:40:59;11.40;99.90
8872;DHT22;4472;52.092;9.820;2023-05-07T19:43:47;11.40;99.90
8872;DHT22;4472;52.092;9.820;2023-05-07T19:46:35;11.30;99.90
8872;DHT22;4472;52.092;9.820;2023-05-07T19:49:24;11.30;99.90
8872;DHT22;4472;52.092;9.820;2023-05-07T19:52:11;11.30;99.90
8872;DHT22;4472;52.092;9.820;2023-05-07T19:55:00;11.30;99.90
8872;DHT22;4472;52.092;9.820;2023-05-07T19:57:47;11.30;99.90